MYNN

Lynden Pindling International Airport

Nassau, , Bahamas
MYNN 230500Z 2306/2406 13006KT 9999 VCSH FEW018CB SCT020 BKN120 PROB30 TEMPO 2312/2315 5000 SHRA SCT015CB BKN018 BECMG 2400/2402 13012KT 9999 SCT018
Issued Valid From Valid To
Apr-23 @ 05:00 UTC
(5 hours ago)
Apr-23 @ 06:00 UTC
(4 hours ago)
Apr-24 @ 06:00 UTC
(in 20 hours)
Apr-23 @ 06:00 to Apr-24 @ 00:00
MYNN 230500Z 2306/2406 13006KT 9999 VCSH FEW018CB SCT020 BKN120
Wind Visibility Clouds
130° at 6 knots 10,000+ meters
  • Few at 1,800' AGL
  • Scattered at 2,000' AGL
  • Broken at 12,000' AGL
Temporary  (Probability 30%) Apr-23 @ 12:00 to Apr-23 @ 15:00
PROB30 TEMPO 2312/2315 5000 SHRA SCT015CB BKN018
Visibility Clouds Conditions
5,005 meters
  • Scattered at 1,500' AGL
  • Broken at 1,800' AGL
  • Rain
Becoming Apr-24 @ 00:00 to Apr-24 @ 06:00
BECMG 2400/2402 13012KT 9999 SCT018
Wind Visibility Clouds
130° at 12 knots 10,000+ meters
  • Scattered at 1,800' AGL
MYNN 230500Z 2306/2406 13006KT 9999 VCSH FEW018CB SCT020 BKN120 PROB30 TEMPO 2312/2315 5000 SHRA SCT015CB BKN018 BECMG 2400/2402 13012KT 9999 SCT018
Issued Apr-23 @ 05:00 UTC
(5 hours ago)
Valid From Apr-23 @ 06:00 UTC
(4 hours ago)
Valid To Apr-24 @ 06:00 UTC
(in 20 hours)
Apr-23 @ 06:00 - Apr-24 @ 00:00
Wind Visibility
130° at 6 knots 10,000+ meters
Clouds
  • Few at 1,800' AGL
  • Scattered at 2,000' AGL
  • Broken at 12,000' AGL
Probability 30% Temporary Apr-23 @ 12:00 - Apr-23 @ 15:00
Clouds
  • Scattered at 1,500' AGL
  • Broken at 1,800' AGL
Conditions
  • Rain
Becoming Apr-24 @ 00:00 - Apr-24 @ 06:00
Wind Visibility
130° at 12 knots 10,000+ meters
Clouds
  • Scattered at 1,800' AGL